Jiangling, China
Current Conditions -  °F | °C
As of 2:00 AM on Saturday 25 Oct 2014 (Local Time) from ZHHH Reporting Station
Haze Haze  
Wind Chill: 64°   Ceiling: Unl
Heat Index: 64°   Visibility: 3mi
Dew Point: 59°   Wind: 7mph
Humidity: 83%   Direction: 120°ESE
Pressure: 30"   Gusts: NA
Location:  30.33°N, 112.18°E
Report Text: ZHHH 241800Z 12003MPS 5000 BR NSC 18/15 Q1016 NOSIG
Loading
Personal Weather Stations






























Interactive Weather Map
Tropical Storm Tracking
New forecast layout! Learn more

10-Day Weather Forecast

Advertisements
Track Severe Weather on mobile